Forkton, Kentucky
Current Conditions -  °F | °C
As of 4:15 AM on Saturday 20 Dec 2014 (Local Time) from KGLW Reporting Station
Broken Clouds Broken Clouds  
Wind Chill: 29°   Ceiling: 6500
Heat Index: 29°   Visibility: 7mi
Dew Point: 25°   Wind: 0mph
Humidity: 83%   Direction: NA
Pressure: 30.24"   Gusts: NA
Location:  36.7279°N, 85.6843°W
Report Text: KGLW 201015Z AUTO 00000KT 7SM BKN065 M01/M04 A3024 RMK AO2 T10151040
Loading
Personal Weather Stations






























Interactive Weather Map New forecast layout! Learn more

10-Day Weather Forecast

Advertisements
Track Severe Weather on mobile